KCGI/CGI METAR and TAF weather

Enter ICAO airport designator
Station Type Date Time Source
KCGI METAR 2018/10/21 04:53 UTC NOAA

KCGI 210453Z AUTO 03016G24KT 10SM CLR 07/M05 A3035 RMK AO2 PK WND 04026/0443 RAB29E42 SLP278 P0000 T00671050


Station Type Date Time Source
KCGI Decoded METAR 2018/10/21 04:53 UTC NOAA

CAPE GIRARDEAU REGIONAL, MO, United States (KCGI) 37-14N 089-35W 102M
Oct 21, 2018 - 12:53 AM EDT / 2018.10.21 0453 UTC
Wind: from the NNE (030 degrees) at 18 MPH (16 KT) gusting to 28 MPH (24 KT):0
Visibility: 10 mile(s):0
Sky conditions: clear
Precipitation last hour: A trace
Temperature: 44.1 F (6.7 C)
Dew Point: 23.0 F (-5.0 C)
Relative Humidity: 42%
Pressure (altimeter): 30.35 in. Hg (1027 hPa)
ob: KCGI 210453Z AUTO 03016G24KT 10SM CLR 07/M05 A3035 RMK AO2 PK WND 04026/0443 RAB29E42 SLP278 P0000 T00671050
cycle: 5

Station Type Date Time Source
KCGI TAF 2018/10/21 06:22 UTC NOAA

TAF KCGI 210520Z 2106/2206 02004KT P6SM SKC
FM211400 VRB03KT P6SM SKC


Example: see airport list